Depesze METAR lotnisk w Polsce

METAR – format kodowanego raportu o pogodzie używany w meteorologii lotniczej i prognozie pogody. METAR jest akronimem od ang. Meteorological Aerodrome Report. Typowy METAR zawiera informację o temperaturze, ciśnieniu, temperaturze punktu rosy, sile i kierunku wiatru, opadzie, pokrywie chmur, wysokości podstawy chmur, widzialności, lecz może zawierać też inne informacje (np. stan dróg startowych).

Warszawa-Okęcie (EPWA)

METAR = EPWA 090100Z 14003KT CAVOK 08/00 Q1021 NOSIG

STACJA......... EPWA - Warszawa-Okęcie (WAW)
POMIAR......... Thu Apr 9, 03:00 CEST
WIATR.......... południowo wschodni (SE) z prędkością 6 km/h
WIDZIALNOŚĆ.... powyżej 10 kilometrów
CHMURY......... bezchmurne niebo
TEMPERATURA.... 8°C
T.PUNKTU ROSY.. 0°C
WILGOTNOŚĆ..... 57%
T.ODCZUWALNA... 7°C
CIŚNIENIE...... 1021 hPa
CIŚN.BEZWZGL... 1007 hPa
PROGNOZA....... bez nagłych zmian w ciągu 2h

Sprawdź też: Prognoza pogody Warszawa

Warszawa-Modlin (EPMO)

METAR = EPMO 090030Z VRB02KT CAVOK 06/M01 Q1021 =

STACJA......... EPMO - Warszawa-Modlin (WMI)
POMIAR......... Thu Apr 9, 02:30 CEST
WIATR.......... zmienny z prędkością 4 km/h
WIDZIALNOŚĆ.... powyżej 10 kilometrów
CHMURY......... bezchmurne niebo
TEMPERATURA.... 6°C
T.PUNKTU ROSY.. -1°C
WILGOTNOŚĆ..... 61%
CIŚNIENIE...... 1021 hPa
CIŚN.BEZWZGL... 1008 hPa

Sprawdź też: Prognoza pogody Nowy Dwór Mazowiecki

Kraków-Balice (EPKK)

METAR = EPKK 090100Z 22003KT CAVOK 04/M02 Q1023

STACJA......... EPKK - Kraków-Balice (KRK)
POMIAR......... Thu Apr 9, 03:00 CEST
WIATR.......... południowo-zachodni (SW) z prędkością 6 km/h
WIDZIALNOŚĆ.... powyżej 10 kilometrów
CHMURY......... bezchmurne niebo
TEMPERATURA.... 4°C
T.PUNKTU ROSY.. -2°C
WILGOTNOŚĆ..... 65%
T.ODCZUWALNA... 3°C
CIŚNIENIE...... 1023 hPa
CIŚN.BEZWZGL... 993 hPa

Sprawdź też: Prognoza pogody Kraków

Łódź-Lublinek (EPLL)

METAR = EPLL 090100Z VRB01KT 6000 NSC 04/02 Q1021

STACJA......... EPLL - Łódź-Lublinek (LCJ)
POMIAR......... Thu Apr 9, 03:00 CEST
WIATR.......... zmienny z prędkością 2 km/h
WIDZIALNOŚĆ.... 6000 metrów
CHMURY......... brak istotnych chmur
TEMPERATURA.... 4°C
T.PUNKTU ROSY.. 2°C
WILGOTNOŚĆ..... 87%
CIŚNIENIE...... 1021 hPa
CIŚN.BEZWZGL... 998 hPa

Sprawdź też: Prognoza pogody Łódź

Wrocław-Strachowice (EPWR)

METAR = EPWR 090100Z VRB02KT CAVOK 03/M02 Q1022

STACJA......... EPWR - Wrocław-Strachowice (WRO)
POMIAR......... Thu Apr 9, 03:00 CEST
WIATR.......... zmienny z prędkością 4 km/h
WIDZIALNOŚĆ.... powyżej 10 kilometrów
CHMURY......... bezchmurne niebo
TEMPERATURA.... 3°C
T.PUNKTU ROSY.. -2°C
WILGOTNOŚĆ..... 70%
CIŚNIENIE...... 1022 hPa
CIŚN.BEZWZGL... 1007 hPa

Sprawdź też: Prognoza pogody Wrocław

Katowice-Pyrzowice (EPKT)

METAR = EPKT 090100Z 07002KT CAVOK M01/M05 Q1022

STACJA......... EPKT - Katowice-Pyrzowice (KTW)
POMIAR......... Thu Apr 9, 03:00 CEST
WIATR.......... wschodni północno-wschodni (ENE) z prędkością 4 km/h
WIDZIALNOŚĆ.... powyżej 10 kilometrów
CHMURY......... bezchmurne niebo
TEMPERATURA.... -1°C
T.PUNKTU ROSY.. -5°C
WILGOTNOŚĆ..... 75%
CIŚNIENIE...... 1022 hPa
CIŚN.BEZWZGL... 984 hPa

Sprawdź też: Prognoza pogody Katowice

Gdańsk (EPGD)

METAR = EPGD 090100Z 22009KT CAVOK 13/03 Q1018

STACJA......... EPGD - Gdańsk im. Lecha Wałęsy (GDN)
POMIAR......... Thu Apr 9, 03:00 CEST
WIATR.......... południowo-zachodni (SW) z prędkością 17 km/h
WIDZIALNOŚĆ.... powyżej 10 kilometrów
CHMURY......... bezchmurne niebo
TEMPERATURA.... 13°C
T.PUNKTU ROSY.. 3°C
WILGOTNOŚĆ..... 51%
CIŚNIENIE...... 1018 hPa
CIŚN.BEZWZGL... 1000 hPa

Sprawdź też: Prognoza pogody Gdańsk

Poznań-Ławica (EPPO)

METAR = EPPO 090100Z 21001KT 8000 NSC 04/03 Q1020

STACJA......... EPPO - Poznań-Ławica (POZ)
POMIAR......... Thu Apr 9, 03:00 CEST
WIATR.......... południowo południowo-zachodni  (SSW) z prędkością 2 km/h
WIDZIALNOŚĆ.... 8000 metrów
CHMURY......... brak istotnych chmur
TEMPERATURA.... 4°C
T.PUNKTU ROSY.. 3°C
WILGOTNOŚĆ..... 93%
CIŚNIENIE...... 1020 hPa
CIŚN.BEZWZGL... 1008 hPa

Sprawdź też: Prognoza pogody Poznań

Rzeszów-Jasionka (EPRZ)

METAR = EPRZ 090100Z VRB01KT CAVOK 02/00 Q1022

STACJA......... EPRZ - Rzeszów-Jasionka (RZE)
POMIAR......... Thu Apr 9, 03:00 CEST
WIATR.......... zmienny z prędkością 2 km/h
WIDZIALNOŚĆ.... powyżej 10 kilometrów
CHMURY......... bezchmurne niebo
TEMPERATURA.... 2°C
T.PUNKTU ROSY.. 0°C
WILGOTNOŚĆ..... 87%
CIŚNIENIE...... 1022 hPa
CIŚN.BEZWZGL... 996 hPa

Sprawdź też: Prognoza pogody Rzeszów

Szczecin-Goleniów (EPSC)

METAR = EPSC 090100Z VRB02KT CAVOK 08/03 Q1020

STACJA......... EPSC - Szczecin-Goleniów (SZZ)
POMIAR......... Thu Apr 9, 03:00 CEST
WIATR.......... zmienny z prędkością 4 km/h
WIDZIALNOŚĆ.... powyżej 10 kilometrów
CHMURY......... bezchmurne niebo
TEMPERATURA.... 8°C
T.PUNKTU ROSY.. 3°C
WILGOTNOŚĆ..... 71%
CIŚNIENIE...... 1020 hPa
CIŚN.BEZWZGL... 1014 hPa

Sprawdź też: Prognoza pogody Szczecin

Lublin-Świdnik (EPLB)

METAR = EPLB 090030Z VRB01KT CAVOK 05/M01 Q1023 =

STACJA......... EPLB - Lublin-Świdnik (LUZ)
POMIAR......... Thu Apr 9, 02:30 CEST
WIATR.......... zmienny z prędkością 2 km/h
WIDZIALNOŚĆ.... powyżej 10 kilometrów
CHMURY......... bezchmurne niebo
TEMPERATURA.... 5°C
T.PUNKTU ROSY.. -1°C
WILGOTNOŚĆ..... 66%
CIŚNIENIE...... 1023 hPa
CIŚN.BEZWZGL... 998 hPa

Sprawdź też: Prognoza pogody Lublin

Bydgoszcz-Szwederowo (EPBY)

METAR = EPBY 090030Z 00000KT CAVOK 04/M00 Q1020=

STACJA......... EPBY - Bydgoszcz-Szwederowo (BZG)
POMIAR......... Thu Apr 9, 02:30 CEST
WIATR.......... bezwietrznie
WIDZIALNOŚĆ.... powyżej 10 kilometrów
CHMURY......... bezchmurne niebo
TEMPERATURA.... 4°C
T.PUNKTU ROSY.. 0°C
WILGOTNOŚĆ..... 75%
CIŚNIENIE...... 1020 hPa
CIŚN.BEZWZGL... 1011 hPa

Sprawdź też: Prognoza pogody Bydgoszcz

Zielona Góra-Babimost (EPZG)

METAR = EPZG 090030Z NIL=

STACJA......... EPZG - Zielona Góra-Babimost (IEG)
POMIAR......... Thu Apr 9, 02:30 CEST
DEPESZA........ brak aktualnej prognozy w treści depeszy

Sprawdź też: Prognoza pogody Zielona Góra

Szymany Olsztyn-Mazury (EPSY)

METAR = EPSY 090030Z NIL=

STACJA......... EPSY - Olsztyn-Mazury (SZY)
POMIAR......... Thu Apr 9, 02:30 CEST
DEPESZA........ brak aktualnej prognozy w treści depeszy

Sprawdź też: Prognoza pogody Olsztyn